Terminal Aerodrome Forecast
Issued by NWS Charleston, WV

Current Version | Previous Version | Text Only | Print | Product List | Glossary On
Versions: 1 2 3 4 5 6 7 8 9 10 11 12 13 14 15 16 17 18 19 20 21 22 23
000
FTUS41 KRLX 281120
TAFHTS
TAF
KHTS 281120Z 2812/0112 14003KT P6SM BKN200
     FM281400 18007KT P6SM -SHRA OVC050
     FM281700 18008KT 4SM SHRA VCTS BKN025 OVC035CB
     FM282300 19008KT P6SM OVC020
     FM010900 21010G17KT 5SM -SHRA OVC020=

USA.gov is the U.S. government's official web portal to all federal, state and local government web resources and services.